Glory Ocean — 9VDE7 — position and weather

sailwx.info

Track history (hours):
 
Tides and Currents Weather Stations Pressure Air Temp Water Temp Dewpoint Dewpoint Depression Visibility Wind Speed Wind Dir Waves Ship Positions

Glory Ocean

Last reported at 2017-Jul-02 13:57 UTC. Time now 2017-Aug-23 23:20 UTC.
Position S 00°04' W 051°07'.
Warning: this ship's position is 52 days out of date.

Length 139 m; draft 9.5 m.

Type: Cargo ship. MMSI: 564700000.

Date/timePositionNaut miles runAvg speedWind from/ knotsBaromVisibWave heightAir tempDewpointWater temp
2017-Jul-02 13:57S 00°04' W 051°07'0 0.0
2017-Jul-02 13:27S 00°04' W 051°07'0 0.1
2017-Jul-02 12:57S 00°04' W 051°07'0 0.1
2017-Jul-02 12:27S 00°04' W 051°07'0 0.1
2017-Jul-02 11:57S 00°04' W 051°07'0 0.1
2017-Jul-02 11:27S 00°04' W 051°07'0 0.2
2017-Jul-02 10:57S 00°04' W 051°07'0 0.1
2017-Jul-02 10:27S 00°04' W 051°07'0 0.0
2017-Jul-02 09:57S 00°04' W 051°07'0 0.0
2017-Jul-02 09:27S 00°04' W 051°07'0 0.0
2017-Jul-02 08:57S 00°04' W 051°07'0 0.1
2017-Jul-02 08:27S 00°04' W 051°07'1 1.5
2017-Jul-02 08:00S 00°04' W 051°06'2 3.2
2017-Jul-02 07:30S 00°03' W 051°04'3 6.9
2017-Jul-02 07:00S 00°01' W 051°02'5 9.1
2017-Jul-02 06:31N 00°03' W 051°00'5 9.0
2017-Jul-02 06:00N 00°07' W 050°58'4 8.6
2017-Jul-02 05:30N 00°10' W 050°54'4 8.4
2017-Jul-02 05:00N 00°10' W 050°50'4 8.3
2017-Jul-02 04:30N 00°11' W 050°46'4 8.7
2017-Jul-02 04:00N 00°12' W 050°42'5 9.4
2017-Jul-02 03:29N 00°15' W 050°37'3010.0
2017-Jul-02 00:30N 00°40' W 050°22'  
Track history (hours):
 
Tides and Currents Weather Stations Pressure Air Temp Water Temp Dewpoint Dewpoint Depression Visibility Wind Speed Wind Dir Waves Ship Positions

Glory Ocean

Last reported at 2017-Jul-02 13:57 UTC. Time now 2017-Aug-23 23:20 UTC.
Position S 00°04' W 051°07'.
Warning: this ship's position is 52 days out of date.

Length 139 m; draft 9.5 m.

Type: Cargo ship. MMSI: 564700000.

Date/timePositionNaut miles runAvg speedWind from/ knotsBaromVisibWave heightAir tempDewpointWater temp
2017-Jul-02 13:57S 00°04' W 051°07'0 0.0
2017-Jul-02 13:27S 00°04' W 051°07'0 0.1
2017-Jul-02 12:57S 00°04' W 051°07'0 0.1
2017-Jul-02 12:27S 00°04' W 051°07'0 0.1
2017-Jul-02 11:57S 00°04' W 051°07'0 0.1
2017-Jul-02 11:27S 00°04' W 051°07'0 0.2
2017-Jul-02 10:57S 00°04' W 051°07'0 0.1
2017-Jul-02 10:27S 00°04' W 051°07'0 0.0
2017-Jul-02 09:57S 00°04' W 051°07'0 0.0
2017-Jul-02 09:27S 00°04' W 051°07'0 0.0
2017-Jul-02 08:57S 00°04' W 051°07'0 0.1
2017-Jul-02 08:27S 00°04' W 051°07'1 1.5
2017-Jul-02 08:00S 00°04' W 051°06'2 3.2
2017-Jul-02 07:30S 00°03' W 051°04'3 6.9
2017-Jul-02 07:00S 00°01' W 051°02'5 9.1
2017-Jul-02 06:31N 00°03' W 051°00'5 9.0
2017-Jul-02 06:00N 00°07' W 050°58'4 8.6
2017-Jul-02 05:30N 00°10' W 050°54'4 8.4
2017-Jul-02 05:00N 00°10' W 050°50'4 8.3
2017-Jul-02 04:30N 00°11' W 050°46'4 8.7
2017-Jul-02 04:00N 00°12' W 050°42'5 9.4
2017-Jul-02 03:29N 00°15' W 050°37'3010.0
2017-Jul-02 00:30N 00°40' W 050°22'  

Dump ship's entire track history